Time;durP1;ratioP1;P1;durP2;ratioP2;P2;SDS_P1;SDS_P2;PMS_P1;PMS_P2;Temp;Humidity;BMP_temperature;BMP_pressure;BME280_temperature;BME280_humidity;BME280_pressure;Samples;Min_cycle;Max_cycle;Signal;HPM_P1;HPM_P2
2022/01/19 00:01:05;;;;;;;;;;;;;;;;;;5053845;28;848;-79
2022/01/19 00:03:30;;;;;;;;;;;;;;;;;;5035929;28;1220;-79
2022/01/19 00:05:56;;;;;;;;;;;;;;;;;;5052960;28;802;-79
2022/01/19 00:08:22;;;;;;;;;;;;;;;;;;5053560;28;1905;-79
2022/01/19 00:10:49;;;;;;;;;;;;;;;;;;5035708;28;1517;-79
2022/01/19 00:13:15;;;;;;;;;;;;;;;;;;5053471;28;815;-79
2022/01/19 00:15:40;;;;;;;;;;;;;;;;;;5035170;28;1232;-79
2022/01/19 00:18:06;;;;;;;;;;;;;;;;;;5052484;28;1307;-73
2022/01/19 00:20:33;;;;;;;;;;;;;;;;;;5075192;28;1208;-73
2022/01/19 00:22:59;;;;;;;;;;;;;;;;;;5074857;28;1406;-73
2022/01/19 00:25:24;;;;;;;;;;;;;;;;;;5093603;28;896;-73
2022/01/19 00:27:51;;;;;;;;;;;;;;;;;;5093215;28;782;-73
2022/01/19 00:30:17;;;;;;;;;;;;;;;;;;5075094;28;1902;-73
2022/01/19 00:32:43;;;;;;;;;;;;;;;;;;5093444;28;816;-79
2022/01/19 00:35:09;;;;;;;;;;;;;;;;;;5093023;28;835;-79
2022/01/19 00:37:34;;;;;;;;;;;;;;;;;;5093606;28;868;-79
2022/01/19 00:39:59;;;;;;;;;;;;;;;;;;5074576;28;1003;-79
2022/01/19 00:42:25;;;;;;;;;;;;;;;;;;5092960;28;872;-79
2022/01/19 00:44:50;;;;;;;;;;;;;;;;;;5074948;28;1260;-79
2022/01/19 00:47:15;;;;;;;;;;;;;;;;;;5075305;28;951;-80
2022/01/19 00:49:42;;;;;;;;;;;;;;;;;;5058301;28;1914;-79
2022/01/19 00:52:08;;;;;;;;;;;;;;;;;;5074838;28;1166;-79
2022/01/19 00:54:33;;;;;;;;;;;;;;;;;;5093606;28;911;-79
2022/01/19 00:56:59;;;;;;;;;;;;;;;;;;5093631;28;888;-79
2022/01/19 00:59:24;;;;;;;;;;;;;;;;;;5058578;28;1259;-78
2022/01/19 01:01:49;;;;;;;;;;;;;;;;;;5057143;28;1228;-79
2022/01/19 01:04:15;;;;;;;;;;;;;;;;;;5091778;28;1177;-79
2022/01/19 01:06:40;;;;;;;;;;;;;;;;;;5091684;28;1157;-79
2022/01/19 01:09:06;;;;;;;;;;;;;;;;;;5074613;28;1979;-80
2022/01/19 01:11:35;;;;;;;;;;;;;;;;;;5093773;28;908;-79
2022/01/19 01:16:40;;;;;;;;;;;;;;;;;;5093592;28;748;-79
2022/01/19 01:19:09;;;;;;;;;;;;;;;;;;5074762;28;1365;-79
2022/01/19 01:21:35;;;;;;;;;;;;;;;;;;5075463;28;916;-79
2022/01/19 01:24:01;;;;;;;;;;;;;;;;;;5093054;28;974;-79
2022/01/19 01:26:26;;;;;;;;;;;;;;;;;;5058937;28;1282;-79
2022/01/19 01:28:51;;;;;;;;;;;;;;;;;;5074662;28;1902;-79
2022/01/19 01:31:17;;;;;;;;;;;;;;;;;;5074764;28;1296;-79
2022/01/19 01:33:42;;;;;;;;;;;;;;;;;;5093146;28;904;-79
2022/01/19 01:36:08;;;;;;;;;;;;;;;;;;5093297;28;891;-79
2022/01/19 01:38:33;;;;;;;;;;;;;;;;;;5094072;28;995;-79
2022/01/19 01:40:58;;;;;;;;;;;;;;;;;;5078466;28;1168;-80
2022/01/19 01:43:24;;;;;;;;;;;;;;;;;;5097882;28;864;-79
2022/01/19 01:45:53;;;;;;;;;;;;;;;;;;5096363;28;999;-79
2022/01/19 01:48:22;;;;;;;;;;;;;;;;;;5062444;28;1213;-79
2022/01/19 01:53:33;;;;;;;;;;;;;;;;;;5097431;28;647;-79
2022/01/19 01:56:06;;;;;;;;;;;;;;;;;;5094842;28;1168;-79
2022/01/19 01:58:33;;;;;;;;;;;;;;;;;;5115540;28;1090;-79
2022/01/19 02:00:59;;;;;;;;;;;;;;;;;;5098300;28;1015;-79
2022/01/19 02:03:24;;;;;;;;;;;;;;;;;;5097332;28;1030;-78
2022/01/19 02:08:24;;;;;;;;;;;;;;;;;;5097804;28;1977;-79
2022/01/19 02:21:45;;;;;;;;;;;;;;;;;;5084451;28;603;-79
2022/01/19 02:24:13;;;;;;;;;;;;;;;;;;5099203;28;919;-79
2022/01/19 02:42:27;;;;;;;;;;;;;;;;;;5098772;28;611;-79
2022/01/19 02:49:51;;;;;;;;;;;;;;;;;;5099427;28;1946;-79
2022/01/19 02:52:17;;;;;;;;;;;;;;;;;;5099130;28;833;-78
2022/01/19 02:54:42;;;;;;;;;;;;;;;;;;5080964;28;856;-79
2022/01/19 02:57:11;;;;;;;;;;;;;;;;;;5079949;28;1371;-79
2022/01/19 03:10:30;;;;;;;;;;;;;;;;;;5095449;28;1885;-79
2022/01/19 03:12:55;;;;;;;;;;;;;;;;;;5077051;28;1211;-78
2022/01/19 03:15:21;;;;;;;;;;;;;;;;;;5077612;28;1298;-79
2022/01/19 03:17:46;;;;;;;;;;;;;;;;;;5076837;28;1333;-73
2022/01/19 03:20:12;;;;;;;;;;;;;;;;;;5077145;28;888;-73
2022/01/19 03:22:49;;;;;;;;;;;;;;;;;;5094507;28;999;-73
2022/01/19 03:25:15;;;;;;;;;;;;;;;;;;5076060;28;1170;-73
2022/01/19 03:27:40;;;;;;;;;;;;;;;;;;5075924;28;1404;-73
2022/01/19 03:30:06;;;;;;;;;;;;;;;;;;5093480;28;1906;-73
2022/01/19 03:32:31;;;;;;;;;;;;;;;;;;5093750;28;1206;-73
2022/01/19 03:34:57;;;;;;;;;;;;;;;;;;5093965;28;786;-73
2022/01/19 03:37:22;;;;;;;;;;;;;;;;;;5094568;28;840;-73
2022/01/19 03:39:48;;;;;;;;;;;;;;;;;;5076242;28;763;-73
2022/01/19 03:42:13;;;;;;;;;;;;;;;;;;5059379;28;1317;-73
2022/01/19 03:44:39;;;;;;;;;;;;;;;;;;5093415;28;896;-73
2022/01/19 03:47:05;;;;;;;;;;;;;;;;;;5093988;28;844;-73
2022/01/19 03:49:33;;;;;;;;;;;;;;;;;;5093761;28;1975;-73
2022/01/19 03:52:00;;;;;;;;;;;;;;;;;;5093873;28;844;-73
2022/01/19 03:54:26;;;;;;;;;;;;;;;;;;5075375;28;1271;-73
2022/01/19 03:56:52;;;;;;;;;;;;;;;;;;5075576;28;1253;-74
2022/01/19 03:59:17;;;;;;;;;;;;;;;;;;5093410;28;1130;-74
2022/01/19 04:01:42;;;;;;;;;;;;;;;;;;5075620;28;773;-73
2022/01/19 04:06:55;;;;;;;;;;;;;;;;;;5094453;28;848;-73
2022/01/19 04:09:21;;;;;;;;;;;;;;;;;;5093709;28;1971;-73
2022/01/19 04:11:46;;;;;;;;;;;;;;;;;;5075097;28;1210;-73
2022/01/19 04:14:27;;;;;;;;;;;;;;;;;;5074949;28;1276;-73
2022/01/19 04:16:54;;;;;;;;;;;;;;;;;;5093576;28;1115;-73
2022/01/19 04:21:50;;;;;;;;;;;;;;;;;;5093803;28;864;-73
2022/01/19 04:24:16;;;;;;;;;;;;;;;;;;5075937;28;1160;-73
2022/01/19 04:26:43;;;;;;;;;;;;;;;;;;5075928;28;1468;-73
2022/01/19 04:29:09;;;;;;;;;;;;;;;;;;5059194;28;1906;-73
2022/01/19 04:31:34;;;;;;;;;;;;;;;;;;5075939;28;841;-73
2022/01/19 04:34:03;;;;;;;;;;;;;;;;;;5076359;28;1144;-73
2022/01/19 04:44:40;;;;;;;;;;;;;;;;;;5093927;28;686;-73
2022/01/19 05:05:37;;;;;;;;;;;;;;;;;;5093187;28;844;-73
2022/01/19 05:08:20;;;;;;;;;;;;;;;;;;5074329;28;1256;-73
2022/01/19 05:13:36;;;;;;;;;;;;;;;;;;5075305;28;904;-73
2022/01/19 05:16:01;;;;;;;;;;;;;;;;;;5073943;28;1140;-73
2022/01/19 05:18:27;;;;;;;;;;;;;;;;;;5092750;28;1310;-73
2022/01/19 05:21:10;;;;;;;;;;;;;;;;;;5092470;28;723;-74
2022/01/19 05:23:36;;;;;;;;;;;;;;;;;;5092691;28;848;-73
2022/01/19 05:26:01;;;;;;;;;;;;;;;;;;5074332;28;1344;-73
2022/01/19 05:28:26;;;;;;;;;;;;;;;;;;5074398;28;904;-73
2022/01/19 05:30:51;;;;;;;;;;;;;;;;;;5074415;28;2001;-79
2022/01/19 05:33:16;;;;;;;;;;;;;;;;;;5092545;28;853;-79
2022/01/19 05:35:42;;;;;;;;;;;;;;;;;;5074358;28;865;-79
2022/01/19 05:38:07;;;;;;;;;;;;;;;;;;5074516;28;1128;-79
2022/01/19 05:40:33;;;;;;;;;;;;;;;;;;5092463;28;952;-79
2022/01/19 05:42:58;;;;;;;;;;;;;;;;;;5091471;28;1156;-79
2022/01/19 05:45:24;;;;;;;;;;;;;;;;;;5072074;28;1172;-79
2022/01/19 05:47:50;;;;;;;;;;;;;;;;;;5072169;28;1165;-79
2022/01/19 05:50:15;;;;;;;;;;;;;;;;;;5092102;28;1973;-80
2022/01/19 05:52:40;;;;;;;;;;;;;;;;;;5092419;28;955;-79
2022/01/19 05:55:06;;;;;;;;;;;;;;;;;;5080033;28;1156;-79
2022/01/19 05:57:32;;;;;;;;;;;;;;;;;;5080896;28;947;-79
2022/01/19 05:59:58;;;;;;;;;;;;;;;;;;5098596;28;848;-78
2022/01/19 06:02:23;;;;;;;;;;;;;;;;;;5099005;28;1076;-79
2022/01/19 06:04:49;;;;;;;;;;;;;;;;;;5099276;28;829;-79
2022/01/19 06:07:16;;;;;;;;;;;;;;;;;;5097736;28;880;-79
2022/01/19 06:12:08;;;;;;;;;;;;;;;;;;5098570;28;843;-79
2022/01/19 06:14:34;;;;;;;;;;;;;;;;;;5097548;28;1467;-79
2022/01/19 06:16:59;;;;;;;;;;;;;;;;;;5081671;28;1823;-78
2022/01/19 06:19:25;;;;;;;;;;;;;;;;;;5081015;28;1314;-79
2022/01/19 06:21:50;;;;;;;;;;;;;;;;;;5077692;28;1421;-78
2022/01/19 06:24:15;;;;;;;;;;;;;;;;;;5079512;28;1161;-78
2022/01/19 06:26:41;;;;;;;;;;;;;;;;;;5081158;28;1197;-73
2022/01/19 06:29:06;;;;;;;;;;;;;;;;;;5098403;28;1970;-73
2022/01/19 06:31:31;;;;;;;;;;;;;;;;;;5080665;28;983;-73
2022/01/19 06:33:57;;;;;;;;;;;;;;;;;;5079689;28;817;-73
2022/01/19 06:36:22;;;;;;;;;;;;;;;;;;5062876;28;1199;-73
2022/01/19 06:38:47;;;;;;;;;;;;;;;;;;5097459;28;1227;-73
2022/01/19 06:41:12;;;;;;;;;;;;;;;;;;5097889;28;833;-73
2022/01/19 06:43:38;;;;;;;;;;;;;;;;;;5098059;28;888;-73
2022/01/19 06:46:03;;;;;;;;;;;;;;;;;;5079170;28;1202;-73
2022/01/19 06:48:28;;;;;;;;;;;;;;;;;;5097898;28;833;-73
2022/01/19 06:50:54;;;;;;;;;;;;;;;;;;5097213;28;1907;-74
2022/01/19 06:53:20;;;;;;;;;;;;;;;;;;5080330;28;1033;-73
2022/01/19 06:55:46;;;;;;;;;;;;;;;;;;5098172;28;828;-73
2022/01/19 06:58:11;;;;;;;;;;;;;;;;;;5062592;28;1383;-74
2022/01/19 07:00:36;;;;;;;;;;;;;;;;;;5079627;28;896;-73
2022/01/19 07:03:02;;;;;;;;;;;;;;;;;;5079116;28;1238;-73
2022/01/19 07:05:27;;;;;;;;;;;;;;;;;;5077290;28;758;-72
2022/01/19 07:07:56;;;;;;;;;;;;;;;;;;5076244;28;1589;-74
2022/01/19 07:10:22;;;;;;;;;;;;;;;;;;5077002;28;1902;-73
2022/01/19 07:12:47;;;;;;;;;;;;;;;;;;5094154;28;888;-73
2022/01/19 07:15:12;;;;;;;;;;;;;;;;;;5094382;28;833;-74
2022/01/19 07:17:38;;;;;;;;;;;;;;;;;;5094038;28;1150;-74
2022/01/19 07:20:04;;;;;;;;;;;;;;;;;;5075409;28;1254;-74
2022/01/19 07:22:29;;;;;;;;;;;;;;;;;;5076091;28;1160;-74
2022/01/19 07:24:56;;;;;;;;;;;;;;;;;;5094118;28;919;-72
2022/01/19 07:27:22;;;;;;;;;;;;;;;;;;5076026;28;1352;-74
2022/01/19 07:29:47;;;;;;;;;;;;;;;;;;5093813;28;1976;-74
2022/01/19 07:32:13;;;;;;;;;;;;;;;;;;5075487;28;1385;-73
2022/01/19 07:34:39;;;;;;;;;;;;;;;;;;5076124;28;861;-73
2022/01/19 07:37:04;;;;;;;;;;;;;;;;;;5075521;28;1199;-74
2022/01/19 07:39:29;;;;;;;;;;;;;;;;;;5093340;28;1234;-74
2022/01/19 07:41:55;;;;;;;;;;;;;;;;;;5075975;28;782;-74
2022/01/19 07:44:21;;;;;;;;;;;;;;;;;;5094458;28;915;-73
2022/01/19 07:46:46;;;;;;;;;;;;;;;;;;5095354;28;911;-73
2022/01/19 07:49:12;;;;;;;;;;;;;;;;;;5076169;28;1906;-73
2022/01/19 07:51:37;;;;;;;;;;;;;;;;;;5094665;28;738;-73
2022/01/19 07:54:03;;;;;;;;;;;;;;;;;;5076282;28;845;-73
2022/01/19 07:56:29;;;;;;;;;;;;;;;;;;5094328;28;904;-74
2022/01/19 07:58:54;;;;;;;;;;;;;;;;;;5058930;28;1389;-74
2022/01/19 08:01:19;;;;;;;;;;;;;;;;;;5076409;28;1039;-73
2022/01/19 08:03:45;;;;;;;;;;;;;;;;;;5076280;28;1065;-73
2022/01/19 08:06:10;;;;;;;;;;;;;;;;;;5093600;28;864;-73
2022/01/19 08:08:35;;;;;;;;;;;;;;;;;;5075536;28;1280;-74
2022/01/19 08:11:01;;;;;;;;;;;;;;;;;;5075411;28;1905;-72
2022/01/19 08:13:26;;;;;;;;;;;;;;;;;;5094468;28;1070;-80
2022/01/19 08:15:51;;;;;;;;;;;;;;;;;;5076198;28;935;-72
2022/01/19 08:18:17;;;;;;;;;;;;;;;;;;5075404;28;1088;-73
2022/01/19 08:20:43;;;;;;;;;;;;;;;;;;5059296;28;1296;-73
2022/01/19 08:23:08;;;;;;;;;;;;;;;;;;5074852;28;1180;-73
2022/01/19 08:25:34;;;;;;;;;;;;;;;;;;5094223;28;813;-73
2022/01/19 08:27:59;;;;;;;;;;;;;;;;;;5074889;28;1206;-73
2022/01/19 08:30:25;;;;;;;;;;;;;;;;;;5074611;28;2217;-73
2022/01/19 08:32:50;;;;;;;;;;;;;;;;;;5092431;28;900;-73
2022/01/19 08:35:16;;;;;;;;;;;;;;;;;;5074210;28;1241;-73
2022/01/19 08:37:41;;;;;;;;;;;;;;;;;;5074986;28;1278;-73
2022/01/19 08:40:07;;;;;;;;;;;;;;;;;;5058012;28;1188;-73
2022/01/19 08:42:33;;;;;;;;;;;;;;;;;;5092030;28;1039;-73
2022/01/19 08:45:04;;;;;;;;;;;;;;;;;;5074595;28;900;-73
2022/01/19 08:47:29;;;;;;;;;;;;;;;;;;5075229;28;1296;-73
2022/01/19 08:49:55;;;;;;;;;;;;;;;;;;5092913;28;1913;-73
2022/01/19 08:52:20;;;;;;;;;;;;;;;;;;5074484;28;1167;-73
2022/01/19 08:54:47;;;;;;;;;;;;;;;;;;5093771;28;900;-73
2022/01/19 08:57:12;;;;;;;;;;;;;;;;;;5057714;28;1270;-73
2022/01/19 08:59:37;;;;;;;;;;;;;;;;;;5074148;28;1187;-73
2022/01/19 09:02:03;;;;;;;;;;;;;;;;;;5057685;28;1339;-73
2022/01/19 09:04:29;;;;;;;;;;;;;;;;;;5092536;28;963;-74
2022/01/19 09:06:55;;;;;;;;;;;;;;;;;;5092707;28;845;-73
2022/01/19 09:09:21;;;;;;;;;;;;;;;;;;5074955;28;1906;-73
2022/01/19 09:11:46;;;;;;;;;;;;;;;;;;5074389;28;1308;-74
2022/01/19 09:14:12;;;;;;;;;;;;;;;;;;5073832;28;1163;-73
2022/01/19 09:16:37;;;;;;;;;;;;;;;;;;5074263;28;1004;-73
2022/01/19 09:19:03;;;;;;;;;;;;;;;;;;5092118;28;1266;-73
2022/01/19 09:21:29;;;;;;;;;;;;;;;;;;5074517;28;896;-73
2022/01/19 09:23:54;;;;;;;;;;;;;;;;;;5092004;28;837;-73
2022/01/19 09:26:19;;;;;;;;;;;;;;;;;;5092461;28;873;-73
2022/01/19 09:28:45;;;;;;;;;;;;;;;;;;5091539;28;1980;-73
2022/01/19 09:31:12;;;;;;;;;;;;;;;;;;5073499;28;1196;-73
2022/01/19 09:33:38;;;;;;;;;;;;;;;;;;5074618;28;1159;-73
2022/01/19 09:38:30;;;;;;;;;;;;;;;;;;5092834;28;1001;-73
2022/01/19 09:40:56;;;;;;;;;;;;;;;;;;5074261;28;1261;-73
2022/01/19 09:43:22;;;;;;;;;;;;;;;;;;5074717;28;1197;-73
2022/01/19 09:46:06;;;;;;;;;;;;;;;;;;5092904;28;825;-73
2022/01/19 09:48:32;;;;;;;;;;;;;;;;;;5074127;28;1243;-73
2022/01/19 09:50:57;;;;;;;;;;;;;;;;;;5092288;28;1957;-73
2022/01/19 09:53:24;;;;;;;;;;;;;;;;;;5074074;28;825;-73
2022/01/19 09:55:50;;;;;;;;;;;;;;;;;;5073760;28;1307;-73
2022/01/19 09:58:17;;;;;;;;;;;;;;;;;;5074271;28;864;-73
2022/01/19 10:00:43;;;;;;;;;;;;;;;;;;5057517;28;1417;-73
2022/01/19 10:03:14;;;;;;;;;;;;;;;;;;5074319;28;942;-73
2022/01/19 10:05:58;;;;;;;;;;;;;;;;;;5092418;28;888;-79
2022/01/19 10:08:43;;;;;;;;;;;;;;;;;;5073932;28;1134;-78
2022/01/19 10:11:10;;;;;;;;;;;;;;;;;;5091348;28;852;-78
2022/01/19 10:19:20;;;;;;;;;;;;;;;;;;5092091;28;1143;-80
2022/01/19 10:22:18;;;;;;;;;;;;;;;;;;5094728;28;835;-80
2022/01/19 10:24:51;;;;;;;;;;;;;;;;;;5031779;28;1228;-80
2022/01/19 10:27:20;;;;;;;;;;;;;;;;;;5092457;28;832;-79
2022/01/19 10:29:46;;;;;;;;;;;;;;;;;;5073273;28;1988;-79
2022/01/19 10:32:12;;;;;;;;;;;;;;;;;;5091151;28;814;-73
2022/01/19 10:34:37;;;;;;;;;;;;;;;;;;5091764;28;1062;-74
2022/01/19 10:37:05;;;;;;;;;;;;;;;;;;5075469;28;1050;-73
2022/01/19 10:39:57;;;;;;;;;;;;;;;;;;5077406;28;1296;-73
2022/01/19 10:42:26;;;;;;;;;;;;;;;;;;5096767;28;1578;-73
2022/01/19 10:44:56;;;;;;;;;;;;;;;;;;5081772;28;1207;-74
2022/01/19 10:47:36;;;;;;;;;;;;;;;;;;5081897;28;1321;-73
2022/01/19 10:50:02;;;;;;;;;;;;;;;;;;5100244;28;1910;-73
2022/01/19 10:52:32;;;;;;;;;;;;;;;;;;5081554;28;1401;-80
2022/01/19 10:54:59;;;;;;;;;;;;;;;;;;5100481;28;1009;-79
2022/01/19 10:57:25;;;;;;;;;;;;;;;;;;5100094;28;837;-79
2022/01/19 10:59:51;;;;;;;;;;;;;;;;;;5081804;28;1274;-79
2022/01/19 11:02:17;;;;;;;;;;;;;;;;;;5081883;28;1167;-79
2022/01/19 11:04:44;;;;;;;;;;;;;;;;;;5082681;28;1243;-79
2022/01/19 11:07:11;;;;;;;;;;;;;;;;;;5081283;28;1157;-79
2022/01/19 11:09:43;;;;;;;;;;;;;;;;;;5081124;28;1975;-79
2022/01/19 11:12:13;;;;;;;;;;;;;;;;;;5099950;28;801;-78
2022/01/19 11:14:40;;;;;;;;;;;;;;;;;;5101370;28;837;-79
2022/01/19 11:17:06;;;;;;;;;;;;;;;;;;5100803;28;786;-79
2022/01/19 11:19:35;;;;;;;;;;;;;;;;;;5102492;28;1187;-78
2022/01/19 11:22:14;;;;;;;;;;;;;;;;;;5083773;28;1135;-80
2022/01/19 11:24:42;;;;;;;;;;;;;;;;;;5100072;28;872;-80
2022/01/19 11:27:08;;;;;;;;;;;;;;;;;;5097902;28;897;-79
2022/01/19 11:29:34;;;;;;;;;;;;;;;;;;5080013;28;1910;-77
2022/01/19 11:32:11;;;;;;;;;;;;;;;;;;5079711;28;1290;-79
2022/01/19 11:34:38;;;;;;;;;;;;;;;;;;5079601;28;1170;-78
2022/01/19 11:37:04;;;;;;;;;;;;;;;;;;5097619;28;900;-79
2022/01/19 11:39:30;;;;;;;;;;;;;;;;;;5079788;28;1300;-79
2022/01/19 11:41:57;;;;;;;;;;;;;;;;;;5097401;28;762;-78
2022/01/19 11:44:28;;;;;;;;;;;;;;;;;;5097605;28;570;-79
2022/01/19 11:46:55;;;;;;;;;;;;;;;;;;5097584;28;833;-79
2022/01/19 11:49:39;;;;;;;;;;;;;;;;;;5100157;28;1989;-79
2022/01/19 11:52:04;;;;;;;;;;;;;;;;;;5097444;28;845;-79
2022/01/19 11:54:31;;;;;;;;;;;;;;;;;;5067001;28;1178;-78
2022/01/19 11:57:02;;;;;;;;;;;;;;;;;;5081805;28;1159;-72
2022/01/19 11:59:34;;;;;;;;;;;;;;;;;;5094623;28;864;-71
2022/01/19 12:02:18;;;;;;;;;;;;;;;;;;5094408;28;872;-71
2022/01/19 12:04:43;;;;;;;;;;;;;;;;;;5093315;28;1055;-71
2022/01/19 12:07:28;;;;;;;;;;;;;;;;;;5058810;28;1155;-71
2022/01/19 12:09:57;;;;;;;;;;;;;;;;;;5075539;28;1913;-71
2022/01/19 12:12:28;;;;;;;;;;;;;;;;;;5075009;28;1187;-72
2022/01/19 12:14:54;;;;;;;;;;;;;;;;;;5094002;28;860;-72
2022/01/19 12:17:26;;;;;;;;;;;;;;;;;;5059177;28;1141;-72
2022/01/19 12:19:52;;;;;;;;;;;;;;;;;;5071506;28;1309;-72
2022/01/19 12:22:20;;;;;;;;;;;;;;;;;;5072824;28;884;-73
2022/01/19 12:25:09;;;;;;;;;;;;;;;;;;5071678;28;1175;-72
2022/01/19 12:27:39;;;;;;;;;;;;;;;;;;5060933;28;1203;-73
2022/01/19 12:30:07;;;;;;;;;;;;;;;;;;5071520;28;1918;-73
2022/01/19 12:32:37;;;;;;;;;;;;;;;;;;5071774;28;1175;-72
2022/01/19 12:35:10;;;;;;;;;;;;;;;;;;5071552;28;1258;-73
2022/01/19 12:37:35;;;;;;;;;;;;;;;;;;5071077;28;1334;-73
2022/01/19 12:40:03;;;;;;;;;;;;;;;;;;5072766;28;892;-73
2022/01/19 12:42:42;;;;;;;;;;;;;;;;;;5068216;28;2075;-74
2022/01/19 12:45:34;;;;;;;;;;;;;;;;;;5070001;28;1168;-73
2022/01/19 12:48:06;;;;;;;;;;;;;;;;;;5041018;28;1332;-78
2022/01/19 12:50:45;;;;;;;;;;;;;;;;;;5072389;28;1901;-78
2022/01/19 12:53:19;;;;;;;;;;;;;;;;;;5071179;28;1352;-78
2022/01/19 12:55:47;;;;;;;;;;;;;;;;;;5072254;28;998;-79
2022/01/19 12:58:15;;;;;;;;;;;;;;;;;;5071282;28;1440;-78
2022/01/19 13:00:41;;;;;;;;;;;;;;;;;;5072104;28;848;-78
2022/01/19 13:03:14;;;;;;;;;;;;;;;;;;5071660;28;884;-79
2022/01/19 13:05:46;;;;;;;;;;;;;;;;;;5072285;28;998;-79
2022/01/19 13:08:23;;;;;;;;;;;;;;;;;;5072049;28;832;-79
2022/01/19 13:10:51;;;;;;;;;;;;;;;;;;5070913;28;1961;-78
2022/01/19 13:13:27;;;;;;;;;;;;;;;;;;5070753;28;1166;-79
2022/01/19 13:15:54;;;;;;;;;;;;;;;;;;5072659;28;915;-78
2022/01/19 13:18:29;;;;;;;;;;;;;;;;;;5073849;28;1092;-78
2022/01/19 13:20:55;;;;;;;;;;;;;;;;;;5074441;28;1199;-73
2022/01/19 13:23:20;;;;;;;;;;;;;;;;;;5092267;28;899;-73
2022/01/19 13:25:53;;;;;;;;;;;;;;;;;;5073564;28;1252;-73
2022/01/19 13:28:24;;;;;;;;;;;;;;;;;;5074061;28;1645;-73
2022/01/19 13:30:49;;;;;;;;;;;;;;;;;;5092138;28;1963;-73
2022/01/19 13:33:16;;;;;;;;;;;;;;;;;;5073964;28;1256;-73
2022/01/19 13:35:42;;;;;;;;;;;;;;;;;;5092095;28;840;-73
2022/01/19 13:38:11;;;;;;;;;;;;;;;;;;5073835;28;1226;-73
2022/01/19 13:40:37;;;;;;;;;;;;;;;;;;5091026;28;865;-73
2022/01/19 13:43:04;;;;;;;;;;;;;;;;;;5091958;28;840;-73
2022/01/19 13:45:35;;;;;;;;;;;;;;;;;;5091812;28;874;-73
2022/01/19 13:48:09;;;;;;;;;;;;;;;;;;5091572;28;907;-73
2022/01/19 13:50:35;;;;;;;;;;;;;;;;;;5073364;28;1878;-73
2022/01/19 13:53:00;;;;;;;;;;;;;;;;;;5091985;28;958;-73
2022/01/19 13:55:26;;;;;;;;;;;;;;;;;;5057019;28;1293;-79
2022/01/19 13:58:02;;;;;;;;;;;;;;;;;;5092424;28;836;-80
2022/01/19 14:00:27;;;;;;;;;;;;;;;;;;5092060;28;896;-80
2022/01/19 14:02:59;;;;;;;;;;;;;;;;;;5073973;28;967;-79
2022/01/19 14:05:34;;;;;;;;;;;;;;;;;;5074130;28;1279;-79
2022/01/19 14:07:59;;;;;;;;;;;;;;;;;;5091814;28;939;-80
2022/01/19 14:10:25;;;;;;;;;;;;;;;;;;5074067;28;1897;-74
2022/01/19 14:12:50;;;;;;;;;;;;;;;;;;5073592;28;1120;-74
2022/01/19 14:15:24;;;;;;;;;;;;;;;;;;5093051;28;893;-73
2022/01/19 14:17:50;;;;;;;;;;;;;;;;;;5096420;28;785;-74
2022/01/19 14:20:18;;;;;;;;;;;;;;;;;;5060638;28;1353;-74
2022/01/19 14:22:44;;;;;;;;;;;;;;;;;;5060676;28;1286;-73
2022/01/19 14:25:10;;;;;;;;;;;;;;;;;;5096085;28;954;-74
2022/01/19 14:27:37;;;;;;;;;;;;;;;;;;5060898;28;1448;-74
2022/01/19 14:30:05;;;;;;;;;;;;;;;;;;5076984;28;1983;-80
2022/01/19 14:32:41;;;;;;;;;;;;;;;;;;5077520;28;1298;-80
2022/01/19 14:35:22;;;;;;;;;;;;;;;;;;5077427;28;1184;-80
2022/01/19 14:38:06;;;;;;;;;;;;;;;;;;5095700;28;825;-79
2022/01/19 14:40:33;;;;;;;;;;;;;;;;;;5094414;28;1305;-79
2022/01/19 14:42:59;;;;;;;;;;;;;;;;;;5077370;28;1436;-80
2022/01/19 14:45:28;;;;;;;;;;;;;;;;;;5095730;28;829;-78
2022/01/19 14:47:55;;;;;;;;;;;;;;;;;;5096101;28;854;-78
2022/01/19 14:50:26;;;;;;;;;;;;;;;;;;5077950;28;1905;-80
2022/01/19 14:52:54;;;;;;;;;;;;;;;;;;5096275;28;856;-79
2022/01/19 14:55:30;;;;;;;;;;;;;;;;;;5077548;28;1062;-80
2022/01/19 14:57:56;;;;;;;;;;;;;;;;;;5077287;28;1151;-78
2022/01/19 15:00:22;;;;;;;;;;;;;;;;;;5095913;28;908;-80
2022/01/19 15:02:49;;;;;;;;;;;;;;;;;;5077458;28;1043;-79
2022/01/19 15:05:15;;;;;;;;;;;;;;;;;;5076943;28;1223;-78
2022/01/19 15:07:40;;;;;;;;;;;;;;;;;;5077577;28;1234;-78
2022/01/19 15:10:06;;;;;;;;;;;;;;;;;;5077060;28;1988;-78
2022/01/19 15:12:32;;;;;;;;;;;;;;;;;;5077146;28;1215;-78
2022/01/19 15:14:57;;;;;;;;;;;;;;;;;;5077305;28;813;-72
2022/01/19 15:17:22;;;;;;;;;;;;;;;;;;5094791;28;883;-72
2022/01/19 15:19:48;;;;;;;;;;;;;;;;;;5076501;28;1391;-72
2022/01/19 15:22:13;;;;;;;;;;;;;;;;;;5076223;28;903;-73
2022/01/19 15:24:38;;;;;;;;;;;;;;;;;;5076629;28;1151;-72
2022/01/19 15:27:03;;;;;;;;;;;;;;;;;;5058288;28;1169;-72
2022/01/19 15:29:29;;;;;;;;;;;;;;;;;;5076178;28;1910;-72
2022/01/19 15:31:54;;;;;;;;;;;;;;;;;;5076072;28;1200;-73
2022/01/19 15:34:20;;;;;;;;;;;;;;;;;;5095285;28;847;-72
2022/01/19 15:36:46;;;;;;;;;;;;;;;;;;5059686;28;1318;-79
2022/01/19 15:39:11;;;;;;;;;;;;;;;;;;5094007;28;882;-79
2022/01/19 15:41:37;;;;;;;;;;;;;;;;;;5059698;28;1330;-79
2022/01/19 15:44:03;;;;;;;;;;;;;;;;;;5076219;28;1144;-73
2022/01/19 15:46:28;;;;;;;;;;;;;;;;;;5076751;28;1398;-73
2022/01/19 15:48:54;;;;;;;;;;;;;;;;;;5093465;28;766;-73
2022/01/19 15:51:19;;;;;;;;;;;;;;;;;;5076297;28;1910;-73
2022/01/19 15:53:44;;;;;;;;;;;;;;;;;;5093966;28;762;-73
2022/01/19 15:56:09;;;;;;;;;;;;;;;;;;5075234;28;952;-72
2022/01/19 15:58:35;;;;;;;;;;;;;;;;;;5075319;28;1318;-73
2022/01/19 16:01:00;;;;;;;;;;;;;;;;;;5075480;28;935;-72
2022/01/19 16:03:25;;;;;;;;;;;;;;;;;;5075732;28;1163;-73
2022/01/19 16:05:52;;;;;;;;;;;;;;;;;;5075474;28;1580;-73
2022/01/19 16:08:18;;;;;;;;;;;;;;;;;;5074310;28;1162;-72
2022/01/19 16:10:44;;;;;;;;;;;;;;;;;;5076138;28;1965;-78
2022/01/19 16:13:10;;;;;;;;;;;;;;;;;;5094208;28;896;-78
2022/01/19 16:15:35;;;;;;;;;;;;;;;;;;5094217;28;1034;-72
2022/01/19 16:18:00;;;;;;;;;;;;;;;;;;5075641;28;802;-72
2022/01/19 16:20:26;;;;;;;;;;;;;;;;;;5058631;28;1183;-72
2022/01/19 16:28:19;;;;;;;;;;;;;;;;;;5093973;28;618;-73
2022/01/19 16:30:47;;;;;;;;;;;;;;;;;;5092905;28;1959;-73
2022/01/19 16:33:13;;;;;;;;;;;;;;;;;;5074446;28;1372;-72
2022/01/19 16:35:38;;;;;;;;;;;;;;;;;;5074906;28;1118;-73
2022/01/19 16:38:04;;;;;;;;;;;;;;;;;;5074649;28;825;-72
2022/01/19 16:40:29;;;;;;;;;;;;;;;;;;5074521;28;1212;-73
2022/01/19 16:43:02;;;;;;;;;;;;;;;;;;5058015;28;1365;-73
2022/01/19 16:45:28;;;;;;;;;;;;;;;;;;5075008;28;1328;-74
2022/01/19 16:47:58;;;;;;;;;;;;;;;;;;5074582;28;1140;-73
2022/01/19 16:50:23;;;;;;;;;;;;;;;;;;5092823;28;1973;-74
2022/01/19 16:52:49;;;;;;;;;;;;;;;;;;5074973;28;786;-73
2022/01/19 16:55:14;;;;;;;;;;;;;;;;;;5092933;28;821;-73
2022/01/19 16:57:40;;;;;;;;;;;;;;;;;;5093469;28;873;-73
2022/01/19 17:00:08;;;;;;;;;;;;;;;;;;5058114;28;1301;-73
2022/01/19 17:02:33;;;;;;;;;;;;;;;;;;5074879;28;1184;-73
2022/01/19 17:04:59;;;;;;;;;;;;;;;;;;5074375;28;908;-73
2022/01/19 17:07:24;;;;;;;;;;;;;;;;;;5057546;28;1282;-73
2022/01/19 17:09:49;;;;;;;;;;;;;;;;;;5058288;28;1963;-73
2022/01/19 17:12:19;;;;;;;;;;;;;;;;;;5074147;28;1027;-73
2022/01/19 17:14:45;;;;;;;;;;;;;;;;;;5057901;28;1278;-73
2022/01/19 17:17:14;;;;;;;;;;;;;;;;;;5091831;28;873;-73
2022/01/19 17:19:39;;;;;;;;;;;;;;;;;;5092427;28;1382;-73
2022/01/19 17:22:22;;;;;;;;;;;;;;;;;;5073581;28;967;-73
2022/01/19 17:24:47;;;;;;;;;;;;;;;;;;5074465;28;1183;-79
2022/01/19 17:27:13;;;;;;;;;;;;;;;;;;5092075;28;861;-80
2022/01/19 17:29:38;;;;;;;;;;;;;;;;;;5074209;28;1981;-79
2022/01/19 17:32:04;;;;;;;;;;;;;;;;;;5057362;28;1172;-73
2022/01/19 17:34:30;;;;;;;;;;;;;;;;;;5091879;28;1149;-73
2022/01/19 17:36:55;;;;;;;;;;;;;;;;;;5074603;28;849;-73
2022/01/19 17:39:22;;;;;;;;;;;;;;;;;;5091693;28;809;-73
2022/01/19 17:41:47;;;;;;;;;;;;;;;;;;5074723;28;904;-73
2022/01/19 17:44:13;;;;;;;;;;;;;;;;;;5091800;28;1209;-73
2022/01/19 17:49:18;;;;;;;;;;;;;;;;;;5073713;28;1957;-73
2022/01/19 17:51:46;;;;;;;;;;;;;;;;;;5058923;28;1215;-73
2022/01/19 17:54:12;;;;;;;;;;;;;;;;;;5057651;28;1276;-73
2022/01/19 17:56:38;;;;;;;;;;;;;;;;;;5091947;28;817;-73
2022/01/19 17:59:05;;;;;;;;;;;;;;;;;;5092306;28;849;-73
2022/01/19 18:01:31;;;;;;;;;;;;;;;;;;5056931;28;1216;-80
2022/01/19 18:03:57;;;;;;;;;;;;;;;;;;5092496;28;1027;-80
2022/01/19 18:06:25;;;;;;;;;;;;;;;;;;5073561;28;1230;-80
2022/01/19 18:08:51;;;;;;;;;;;;;;;;;;5074077;28;928;-80
2022/01/19 18:11:17;;;;;;;;;;;;;;;;;;5072901;28;1905;-80
2022/01/19 18:13:42;;;;;;;;;;;;;;;;;;5073704;28;1184;-80
2022/01/19 18:16:10;;;;;;;;;;;;;;;;;;5056846;28;1298;-73
2022/01/19 18:18:36;;;;;;;;;;;;;;;;;;5057517;28;1211;-79
2022/01/19 18:21:03;;;;;;;;;;;;;;;;;;5093063;28;766;-80
2022/01/19 18:23:28;;;;;;;;;;;;;;;;;;5073720;28;1211;-81
2022/01/19 18:25:55;;;;;;;;;;;;;;;;;;5074515;28;1270;-80
2022/01/19 18:28:20;;;;;;;;;;;;;;;;;;5056727;28;1508;-80
2022/01/19 18:30:45;;;;;;;;;;;;;;;;;;5092162;28;1909;-80
2022/01/19 18:33:14;;;;;;;;;;;;;;;;;;5091611;28;892;-80
2022/01/19 18:35:39;;;;;;;;;;;;;;;;;;5074151;28;838;-80
2022/01/19 18:38:05;;;;;;;;;;;;;;;;;;5073351;28;1307;-80
2022/01/19 18:40:30;;;;;;;;;;;;;;;;;;5073107;28;884;-80
2022/01/19 18:42:57;;;;;;;;;;;;;;;;;;5091537;28;884;-80
2022/01/19 18:45:25;;;;;;;;;;;;;;;;;;5091532;28;952;-80
2022/01/19 18:47:51;;;;;;;;;;;;;;;;;;5091506;28;794;-80
2022/01/19 18:50:17;;;;;;;;;;;;;;;;;;5072653;28;1897;-80
2022/01/19 18:52:43;;;;;;;;;;;;;;;;;;5073407;28;766;-80
2022/01/19 18:55:09;;;;;;;;;;;;;;;;;;5073089;28;1369;-80